x

Nw Lake Ontario Ajax (45159) Wave Buoy

6:00am - Fri 26th Aug 2016 All times are CDT. -5 hours from GMT.

  • Sig Wave height 0.3ft
  • Peak Period 2s
  • Wind
    7mph, 9mph gusts
  • Sea Temp 72°f
  • Air Temp 71°f
  • Sea Pressure 1016.9mb
  • Nw Lake Ontario Ajax
  • Nw Lake Ontario Ajax

More Historic Weather Station data

Upgrade to MSW Pro to gain access to the past 30 days of data for over 8000 Wavebouys and Weather Stations around the globe.

Join Pro

Comparision Forecast

View Surf forecast
   
Fri 08/26 6:00am 0.3ft 2s 7 9 mph 1016.9mb 72f 71f
5:00am 0.3ft 2s 9 11 mph 1016.4mb 73f 70f
4:00am 0.3ft 2s 11 13 mph 1015.6mb 73f 70f
3:00am 0.3ft 3s 9 11 mph 1015mb 73f 71f
2:00am 0.3ft 3s 9 11 mph 1014.6mb 72f 73f
1:00am 0.3ft 3s 9
mph
1013.8mb 72f 73f
12:00am 0.3ft 3s 7
mph
1013.6mb 72f 72f
Thu 08/25 11:00pm 0.3ft 3s 4
mph
1013.1mb 72f 72f
10:00pm 0.3ft 3s 9
mph
1012.9mb 72f 72f
9:00pm 0.7ft 3s 2 4 mph 1012.9mb 72f 72f
8:00pm 1ft 4s 4 7 mph 1012.6mb 73f 72f
7:00pm 1.3ft 3s 7 11 mph 1012.5mb 73f 72f
6:00pm 1.6ft 3s 13 18 mph 1013.3mb 73f 72f
5:00pm 1.6ft 3s 18 22 mph 1013.1mb 73f 75f
4:00pm 1.6ft 3s 13 16 mph 1012.4mb 73f 76f
3:00pm 1.3ft 3s 16 18 mph 1012.1mb 73f 76f
2:00pm 1.3ft 3s 13 16 mph 1012.6mb 73f 76f
1:00pm 1ft 3s 11 16 mph 1012.8mb 73f 75f
12:00pm 1ft 3s 13
mph
1012.9mb 73f 74f
11:00am 1ft 3s 16 18 mph 1013.3mb 72f 74f
10:00am 1ft 3s 11 13 mph 1013.5mb 72f 73f
9:00am 0.7ft 3s 11 13 mph 1013.3mb 72f 73f
8:00am 0.7ft 3s 2 4 mph 1013.2mb 72f 73f
7:00am 0.7ft 3s 4
mph
1013.2mb 72f 73f
6:00am 0.7ft 3s 7 9 mph 1013.3mb 72f 72f
5:00am 1ft 3s 9
mph
1013mb 72f 72f
4:00am 0.7ft 3s 13 16 mph 1012.3mb 72f 72f
3:00am 0.7ft 3s 11 13 mph 1012.3mb 72f 72f
2:00am 0.7ft 3s 9 11 mph 1012.9mb 72f 72f
1:00am 0.7ft 3s 7 9 mph 1013mb 72f 74f
12:00am 0.7ft 4s 4
mph
1013.7mb 72f 74f
Wed 08/24 11:00pm 1ft 4s 4 7 mph 1014.2mb 72f 74f
10:00pm 1ft 4s  -  2 mph 1015.1mb 72f 73f
9:00pm 1.3ft 4s 9 11 mph 1015.2mb 72f 74f
8:00pm 1.3ft 3s 7 9 mph 1016mb 72f 74f
7:00pm 1.3ft 3s 11 13 mph 1016mb 72f 75f
6:00pm 1ft 3s 13
mph
1016mb 72f 75f
5:00pm 1ft 3s 13 16 mph 1016.6mb 72f 76f
4:00pm 0.7ft 2s 13 16 mph 1017.2mb 72f 76f
3:00pm 0.3ft 2s 11 13 mph 1018mb 72f 76f
2:00pm 0.3ft 3s 9
mph
1018.7mb 72f 73f
1:00pm 0.3ft 3s 7 9 mph 1019.5mb 72f 72f
12:00pm 0.3ft 2s 7
mph
1020.4mb 71f 72f
11:00am 0.3ft 3s 4
mph
1021.2mb 71f 71f
10:00am 0.7ft 3s 4
mph
1021.7mb 70f 71f
9:00am 0.7ft 3s 4 7 mph 1022.2mb 70f 70f
8:00am 0.7ft 3s 4
mph
1022.7mb 69f 68f
7:00am 0.7ft 3s 4
mph
1023mb 69f 68f
6:00am 0.7ft 3s 4
mph
1023.1mb 69f 67f
5:00am 0.7ft 3s 4
mph
1022.8mb 68f 67f
4:00am 1ft 3s 9 11 mph 1022.3mb 68f 70f
3:00am 1ft 3s 11 13 mph 1022.1mb 68f 70f
2:00am 1ft 3s 11 13 mph 1021.8mb 68f 71f
1:00am 0.7ft 3s 9 11 mph 1022mb 68f 71f
12:00am 0.7ft 3s 7 9 mph 1022.7mb 69f 71f
Tue 08/23 11:00pm 1ft 3s 7 9 mph 1022.6mb 69f 72f
10:00pm 1.3ft 3s 11
mph
1022.9mb 69f 73f
9:00pm 1.3ft 3s 11 13 mph 1022.9mb 70f 73f
8:00pm 1.6ft 3s 13 16 mph 1022.6mb 70f 73f
7:00pm 1.6ft 3s 13 18 mph 1022.2mb 70f 73f
6:00pm 1.3ft 3s 16 18 mph 1022mb 71f 74f
5:00pm 1.3ft 3s 18 20 mph 1022.1mb 72f 75f
4:00pm 1.3ft 3s 18 20 mph 1022.4mb 72f 74f
3:00pm 1.3ft 3s 16 18 mph 1022.6mb 72f 74f
2:00pm 1.3ft 3s 16 18 mph 1023mb 72f 73f
1:00pm 1.6ft 4s 13 16 mph 1023.7mb 72f 73f
12:00pm 1.6ft 4s 16 18 mph 1023.9mb 72f 73f
11:00am 1.6ft 4s 16 18 mph 1024.1mb 72f 71f
10:00am 1.3ft 3s 16 18 mph 1024.1mb 72f 70f
9:00am 1ft 3s 13 16 mph 1024.2mb 72f 69f
8:00am 0.7ft 3s 9 11 mph 1024.7mb 72f 69f
7:00am 0.7ft 3s 2 4 mph 1024.7mb 72f 66f
6:00am 0.7ft 3s 4 9 mph 1024.6mb 72f 68f
5:00am 0.3ft 3s  -  2 mph 1024.4mb 72f 65f
4:00am 0.3ft 3s 2
mph
1024.1mb 72f 65f
3:00am 0.7ft 3s 2 4 mph 1023.8mb 72f 66f
2:00am 0.7ft 3s 2 4 mph 1023.6mb 72f 66f
1:00am 0.7ft 3s 4
mph
1023.3mb 72f 66f
12:00am 0.7ft 3s 4
mph
1023mb 72f 67f
Mon 08/22 11:00pm 0.3ft 2s 4
mph
1022.5mb 72f 70f
10:00pm 0.3ft 2s  -  mph 1022.4mb 72f 69f
9:00pm 0.3ft 2s 4
mph
1022.4mb 72f 70f
8:00pm 0.3ft 2s 4 7 mph 1021.7mb 72f 70f
7:00pm 0.7ft 3s 2 7 mph 1021.2mb 72f 71f
6:00pm 0.7ft 3s 4 7 mph 1020.8mb 71f 72f
5:00pm 1ft 3s 4
mph
1020.6mb 71f 73f
4:00pm 1.3ft 3s 9 13 mph 1020.4mb 71f 72f
3:00pm 1ft 3s 11 18 mph 1020.4mb 71f 71f
2:00pm 1ft 3s 11 13 mph 1020.7mb 71f 69f
1:00pm 1ft 3s 13 16 mph 1020.6mb 71f 67f